createdAt,value
2022-09-28T00:00:44.948Z,96.04
2022-09-28T00:01:45.035Z,96.45
2022-09-28T00:02:45.034Z,96.15
2022-09-28T00:03:44.930Z,96.45
2022-09-28T00:04:44.915Z,96.45
2022-09-28T00:05:44.906Z,96.15
2022-09-28T00:06:44.899Z,95.84
2022-09-28T00:07:44.892Z,95.84
2022-09-28T00:08:44.881Z,95.74
2022-09-28T00:09:44.873Z,95.64
2022-09-28T00:10:44.865Z,95.53
2022-09-28T00:11:44.857Z,95.53
2022-09-28T00:12:44.849Z,96.04
2022-09-28T00:13:44.840Z,95.84
2022-09-28T00:14:44.832Z,95.53
2022-09-28T00:15:44.824Z,95.32
2022-09-28T00:16:44.829Z,95.43
2022-09-28T00:17:44.807Z,95.74
2022-09-28T00:18:44.799Z,95.53
2022-09-28T00:19:44.791Z,95.64
2022-09-28T00:20:44.782Z,95.94
2022-09-28T00:21:44.774Z,96.15
2022-09-28T00:22:44.767Z,95.84
2022-09-28T00:23:44.758Z,95.94
2022-09-28T00:24:44.750Z,96.35
2022-09-28T00:25:44.742Z,96.56
2022-09-28T00:26:44.733Z,96.35
2022-09-28T00:27:44.725Z,96.35
2022-09-28T00:28:44.718Z,96.35
2022-09-28T00:29:44.707Z,95.94
2022-09-28T00:30:44.703Z,96.15
2022-09-28T00:31:44.830Z,96.04
2022-09-28T00:32:44.684Z,95.94
2022-09-28T00:33:44.675Z,95.94
2022-09-28T00:34:44.666Z,95.74
2022-09-28T00:35:44.662Z,95.74
2022-09-28T00:36:44.653Z,95.84
2022-09-28T00:37:44.643Z,95.94
2022-09-28T00:38:44.635Z,96.45
2022-09-28T00:39:44.628Z,96.15
2022-09-28T00:40:44.675Z,95.94
2022-09-28T00:41:44.610Z,96.87
2022-09-28T00:42:44.602Z,96.66
2022-09-28T00:43:44.592Z,96.77
2022-09-28T00:44:44.587Z,96.87
2022-09-28T00:45:44.685Z,95.94
2022-09-28T00:46:44.571Z,96.97
2022-09-28T00:47:44.561Z,96.56
2022-09-28T00:48:44.554Z,96.40
2022-09-28T00:49:44.545Z,96.04
2022-09-28T00:50:44.536Z,95.94
2022-09-28T00:51:44.530Z,96.87
2022-09-28T00:52:44.519Z,96.45
2022-09-28T00:53:44.511Z,96.56
2022-09-28T00:54:44.503Z,96.77
2022-09-28T00:55:44.495Z,96.25
2022-09-28T00:56:44.487Z,96.66
2022-09-28T00:57:44.477Z,96.00
2022-09-28T00:58:44.471Z,96.45
2022-09-28T00:59:44.464Z,96.72
2022-09-28T01:00:44.493Z,96.51
2022-09-28T01:01:44.514Z,96.10
2022-09-28T01:02:44.439Z,96.72
2022-09-28T01:03:44.430Z,97.13
2022-09-28T01:04:44.422Z,97.17
2022-09-28T01:05:44.413Z,96.97
2022-09-28T01:06:44.405Z,97.03
2022-09-28T01:07:44.395Z,96.56
2022-09-28T01:08:44.390Z,96.51
2022-09-28T01:09:44.380Z,96.56
2022-09-28T01:10:44.372Z,96.41
2022-09-28T01:11:44.364Z,96.41
2022-09-28T01:12:44.355Z,96.15
2022-09-28T01:13:44.348Z,96.20
2022-09-28T01:14:44.339Z,96.66
2022-09-28T01:15:44.331Z,96.41
2022-09-28T01:16:44.378Z,96.41
2022-09-28T01:17:44.316Z,97.13
2022-09-28T01:18:44.307Z,96.82
2022-09-28T01:19:44.303Z,96.82
2022-09-28T01:20:44.291Z,96.41
2022-09-28T01:21:44.285Z,96.10
2022-09-28T01:22:44.274Z,96.72
2022-09-28T01:23:44.267Z,96.20
2022-09-28T01:24:44.260Z,96.72
2022-09-28T01:25:44.250Z,96.10
2022-09-28T01:26:44.242Z,96.10
2022-09-28T01:27:44.232Z,96.72
2022-09-28T01:28:44.228Z,96.51
2022-09-28T01:29:44.218Z,96.25
2022-09-28T01:30:44.211Z,96.31
2022-09-28T01:31:44.337Z,96.41
2022-09-28T01:32:44.195Z,96.10
2022-09-28T01:33:44.186Z,96.10
2022-09-28T01:34:44.176Z,96.66
2022-09-28T01:35:44.170Z,96.10
2022-09-28T01:36:44.162Z,95.69
2022-09-28T01:37:44.154Z,96.97
2022-09-28T01:38:44.145Z,95.79
2022-09-28T01:39:44.137Z,96.56
2022-09-28T01:40:44.148Z,96.51
2022-09-28T01:41:44.119Z,96.77
2022-09-28T01:42:44.113Z,96.82
2022-09-28T01:43:44.103Z,95.64
2022-09-28T01:44:44.096Z,95.84
2022-09-28T01:45:44.135Z,96.45
2022-09-28T01:46:44.079Z,95.94
2022-09-28T01:47:44.073Z,96.15
2022-09-28T01:48:44.063Z,95.94
2022-09-28T01:49:44.057Z,96.04
2022-09-28T01:50:44.047Z,96.04
2022-09-28T01:51:44.039Z,96.15
2022-09-28T01:52:44.032Z,95.94
2022-09-28T01:53:44.021Z,95.94
2022-09-28T01:54:44.014Z,95.84
2022-09-28T01:55:44.006Z,96.04
2022-09-28T01:56:43.997Z,96.04
2022-09-28T01:57:43.992Z,95.64
2022-09-28T01:58:43.981Z,95.64
2022-09-28T01:59:43.974Z,95.64
2022-09-28T02:00:43.994Z,95.84
2022-09-28T02:01:43.977Z,96.04
2022-09-28T02:02:43.948Z,95.53
2022-09-28T02:03:43.940Z,95.53
2022-09-28T02:04:43.934Z,95.69
2022-09-28T02:05:43.926Z,95.74
2022-09-28T02:06:43.919Z,95.59
2022-09-28T02:07:43.909Z,95.39
2022-09-28T02:08:43.901Z,95.49
2022-09-28T02:09:43.893Z,95.59
2022-09-28T02:10:43.886Z,95.07
2022-09-28T02:11:43.876Z,95.53
2022-09-28T02:12:43.868Z,95.49
2022-09-28T02:13:43.859Z,94.98
2022-09-28T02:14:43.855Z,95.18
2022-09-28T02:15:43.844Z,94.77
2022-09-28T02:16:43.927Z,94.77
2022-09-28T02:17:43.828Z,94.87
2022-09-28T02:18:43.818Z,94.36
2022-09-28T02:19:43.812Z,94.77
2022-09-28T02:20:43.803Z,94.92
2022-09-28T02:21:43.794Z,93.99
2022-09-28T02:22:43.788Z,94.36
2022-09-28T02:23:43.781Z,94.51
2022-09-28T02:24:43.771Z,94.51
2022-09-28T02:25:43.763Z,94.36
2022-09-28T02:26:43.754Z,94.30
2022-09-28T02:27:43.749Z,94.30
2022-09-28T02:28:43.737Z,94.51
2022-09-28T02:29:43.730Z,94.40
2022-09-28T02:30:43.720Z,94.61
2022-09-28T02:31:43.812Z,94.51
2022-09-28T02:32:43.705Z,95.02
2022-09-28T02:33:43.697Z,94.81
2022-09-28T02:34:43.690Z,94.40
2022-09-28T02:35:43.701Z,94.40
2022-09-28T02:36:43.673Z,94.30
2022-09-28T02:37:43.664Z,94.92
2022-09-28T02:38:43.663Z,94.71
2022-09-28T02:39:43.647Z,94.40
2022-09-28T02:40:43.658Z,94.40
2022-09-28T02:41:43.634Z,94.40
2022-09-28T02:42:43.624Z,94.92
2022-09-28T02:43:43.616Z,94.71
2022-09-28T02:44:43.609Z,94.51
2022-09-28T02:45:43.650Z,94.20
2022-09-28T02:46:43.591Z,94.30
2022-09-28T02:47:43.583Z,94.51
2022-09-28T02:48:45.667Z,94.40
2022-09-28T02:49:43.565Z,94.40
2022-09-28T02:50:43.558Z,94.30
2022-09-28T02:51:43.550Z,94.51
2022-09-28T02:52:43.553Z,94.40
2022-09-28T02:53:43.535Z,94.96
2022-09-28T02:54:43.525Z,93.99
2022-09-28T02:55:43.517Z,94.96
2022-09-28T02:56:43.509Z,94.96
2022-09-28T02:57:43.503Z,94.85
2022-09-28T02:58:43.495Z,94.76
2022-09-28T02:59:43.487Z,95.17
2022-09-28T03:00:43.632Z,95.06
2022-09-28T03:01:43.490Z,95.57
2022-09-28T03:02:43.461Z,94.96
2022-09-28T03:03:43.454Z,95.27
2022-09-28T03:04:43.445Z,95.68
2022-09-28T03:05:43.434Z,95.47
2022-09-28T03:06:43.427Z,95.68
2022-09-28T03:07:43.419Z,95.57
2022-09-28T03:08:43.411Z,95.57
2022-09-28T03:09:43.401Z,95.89
2022-09-28T03:10:43.396Z,95.37
2022-09-28T03:11:43.385Z,95.57
2022-09-28T03:12:43.379Z,95.37
2022-09-28T03:13:43.369Z,95.68
2022-09-28T03:14:43.362Z,95.47
2022-09-28T03:15:47.715Z,95.47
2022-09-28T03:16:43.362Z,95.78
2022-09-28T03:17:43.336Z,95.57
2022-09-28T03:18:43.333Z,96.03
2022-09-28T03:19:43.320Z,95.93
2022-09-28T03:20:43.312Z,96.44
2022-09-28T03:21:43.304Z,96.03
2022-09-28T03:22:43.296Z,96.44
2022-09-28T03:23:43.288Z,96.34
2022-09-28T03:24:43.281Z,96.44
2022-09-28T03:25:43.273Z,96.55
2022-09-28T03:26:43.262Z,96.23
2022-09-28T03:27:43.257Z,96.75
2022-09-28T03:28:43.256Z,96.65
2022-09-28T03:29:43.237Z,96.50
2022-09-28T03:30:43.231Z,96.44
2022-09-28T03:31:43.264Z,96.70
2022-09-28T03:32:43.214Z,96.65
2022-09-28T03:33:43.205Z,96.55
2022-09-28T03:34:43.197Z,96.34
2022-09-28T03:35:43.190Z,96.44
2022-09-28T03:36:43.181Z,96.55
2022-09-28T03:37:43.172Z,96.65
2022-09-28T03:38:43.163Z,96.75
2022-09-28T03:39:43.158Z,96.44
2022-09-28T03:40:43.188Z,96.90
2022-09-28T03:41:43.138Z,96.90
2022-09-28T03:42:43.130Z,97.31
2022-09-28T03:43:43.124Z,97.41
2022-09-28T03:44:43.116Z,97.66
2022-09-28T03:45:43.162Z,97.72
2022-09-28T03:46:43.099Z,97.41
2022-09-28T03:47:43.091Z,97.36
2022-09-28T03:48:43.083Z,98.75
2022-09-28T03:49:43.073Z,97.97
2022-09-28T03:50:43.065Z,98.28
2022-09-28T03:51:43.058Z,98.03
2022-09-28T03:52:43.049Z,98.24
2022-09-28T03:53:43.041Z,98.69
2022-09-28T03:54:48.317Z,98.75
2022-09-28T03:55:43.025Z,98.54
2022-09-28T03:56:43.016Z,98.44
2022-09-28T03:57:43.006Z,98.24
2022-09-28T03:58:43.004Z,98.54
2022-09-28T03:59:42.991Z,98.03
2022-09-28T04:00:43.029Z,98.13
2022-09-28T04:01:43.027Z,98.19
2022-09-28T04:02:42.965Z,98.33
2022-09-28T04:03:42.957Z,98.24
2022-09-28T04:04:42.948Z,98.44
2022-09-28T04:05:42.942Z,97.82
2022-09-28T04:06:42.932Z,98.44
2022-09-28T04:07:42.923Z,98.44
2022-09-28T04:08:42.917Z,98.54
2022-09-28T04:09:42.905Z,98.65
2022-09-28T04:10:42.897Z,98.54
2022-09-28T04:12:02.408Z,98.13
2022-09-28T04:12:42.882Z,98.54
2022-09-28T04:13:42.872Z,98.69
2022-09-28T04:14:42.865Z,98.75
2022-09-28T04:15:42.857Z,98.75
2022-09-28T04:16:42.892Z,98.75
2022-09-28T04:17:42.843Z,98.44
2022-09-28T04:18:42.835Z,98.75
2022-09-28T04:19:42.823Z,98.65
2022-09-28T04:20:42.816Z,98.75
2022-09-28T04:21:42.806Z,98.75
2022-09-28T04:22:42.799Z,98.75
2022-09-28T04:23:42.794Z,98.65
2022-09-28T04:24:42.781Z,98.65
2022-09-28T04:25:42.775Z,98.75
2022-09-28T04:26:42.767Z,98.75
2022-09-28T04:27:42.757Z,98.85
2022-09-28T04:28:42.748Z,99.05
2022-09-28T04:29:42.739Z,98.96
2022-09-28T04:30:42.771Z,99.01
2022-09-28T04:31:42.783Z,98.50
2022-09-28T04:32:42.717Z,98.85
2022-09-28T04:33:42.705Z,98.70
2022-09-28T04:34:44.343Z,98.60
2022-09-28T04:35:42.692Z,98.60
2022-09-28T04:36:42.683Z,98.50
2022-09-28T04:37:42.671Z,97.88
2022-09-28T04:38:52.756Z,98.50
2022-09-28T04:39:46.281Z,98.50
2022-09-28T04:40:42.707Z,97.78
2022-09-28T04:41:42.638Z,98.60
2022-09-28T04:42:42.631Z,98.50
2022-09-28T04:43:42.623Z,98.50
2022-09-28T04:44:42.613Z,97.57
2022-09-28T04:45:42.636Z,97.67
2022-09-28T04:46:42.598Z,97.47
2022-09-28T04:47:42.590Z,97.57
2022-09-28T04:48:42.583Z,97.27
2022-09-28T04:49:42.571Z,97.27
2022-09-28T04:50:42.563Z,97.06
2022-09-28T04:51:42.554Z,97.37
2022-09-28T04:52:42.548Z,96.85
2022-09-28T04:53:42.542Z,97.27
2022-09-28T04:54:42.530Z,97.06
2022-09-28T04:55:42.522Z,97.47
2022-09-28T04:56:42.515Z,97.27
2022-09-28T04:57:42.504Z,96.85
2022-09-28T04:58:42.496Z,96.95
2022-09-28T04:59:42.489Z,96.95
2022-09-28T05:00:42.521Z,97.27
2022-09-28T05:01:42.471Z,97.57
2022-09-28T05:02:42.530Z,97.27
2022-09-28T05:03:42.454Z,96.85
2022-09-28T05:04:42.449Z,97.00
2022-09-28T05:05:42.436Z,96.75
2022-09-28T05:06:42.429Z,96.39
2022-09-28T05:07:42.422Z,96.44
2022-09-28T05:08:42.413Z,96.55
2022-09-28T05:09:42.420Z,97.00
2022-09-28T05:10:42.395Z,97.20
2022-09-28T05:11:42.392Z,96.85
2022-09-28T05:12:42.380Z,97.06
2022-09-28T05:13:42.372Z,96.65
2022-09-28T05:14:42.359Z,97.37
2022-09-28T05:15:42.354Z,97.37
2022-09-28T05:16:42.483Z,97.06
2022-09-28T05:17:42.334Z,97.31
2022-09-28T05:18:42.326Z,97.37
2022-09-28T05:19:42.319Z,97.37
2022-09-28T05:20:42.320Z,97.00
2022-09-28T05:21:42.302Z,97.67
2022-09-28T05:22:42.296Z,97.10
2022-09-28T05:23:42.286Z,97.20
2022-09-28T05:24:42.276Z,96.95
2022-09-28T05:25:42.278Z,97.06
2022-09-28T05:26:42.262Z,97.57
2022-09-28T05:27:42.252Z,97.72
2022-09-28T05:28:42.244Z,97.62
2022-09-28T05:29:42.238Z,97.47
2022-09-28T05:30:42.237Z,97.47
2022-09-28T05:31:42.313Z,97.57
2022-09-28T05:32:42.211Z,97.67
2022-09-28T05:33:42.200Z,97.67
2022-09-28T05:34:42.196Z,97.88
2022-09-28T05:35:42.241Z,97.47
2022-09-28T05:36:42.177Z,97.57
2022-09-28T05:37:42.167Z,97.57
2022-09-28T05:38:42.161Z,97.63
2022-09-28T05:39:42.152Z,97.53
2022-09-28T05:40:42.197Z,97.02
2022-09-28T05:41:42.134Z,97.02
2022-09-28T05:42:42.129Z,97.22
2022-09-28T05:43:42.117Z,97.12
2022-09-28T05:44:42.110Z,97.12
2022-09-28T05:45:42.148Z,97.12
2022-09-28T05:46:42.096Z,96.91
2022-09-28T05:47:42.084Z,96.91
2022-09-28T05:48:42.076Z,97.02
2022-09-28T05:49:42.067Z,97.22
2022-09-28T05:50:42.059Z,96.70
2022-09-28T05:51:42.051Z,96.81
2022-09-28T05:52:42.043Z,96.19
2022-09-28T05:53:42.032Z,96.70
2022-09-28T05:54:42.026Z,96.50
2022-09-28T05:55:42.018Z,96.45
2022-09-28T05:56:42.009Z,96.04
2022-09-28T05:57:42.002Z,96.56
2022-09-28T05:58:41.994Z,96.50
2022-09-28T05:59:41.984Z,96.56
2022-09-28T06:00:41.976Z,96.77
2022-09-28T06:01:42.019Z,96.87
2022-09-28T06:02:42.035Z,96.15
2022-09-28T06:03:41.951Z,95.53
2022-09-28T06:04:41.945Z,95.43
2022-09-28T06:05:41.942Z,95.64
2022-09-28T06:06:41.928Z,95.84
2022-09-28T06:07:41.918Z,95.43
2022-09-28T06:08:41.908Z,95.43
2022-09-28T06:09:41.903Z,94.51
2022-09-28T06:10:41.895Z,94.92
2022-09-28T06:11:41.889Z,95.32
2022-09-28T06:12:41.876Z,95.12
2022-09-28T06:13:41.867Z,95.18
2022-09-28T06:14:41.859Z,95.28
2022-09-28T06:15:41.853Z,94.98
2022-09-28T06:16:44.013Z,95.07
2022-09-28T06:17:41.836Z,95.03
2022-09-28T06:18:41.826Z,94.83
2022-09-28T06:19:41.819Z,94.42
2022-09-28T06:20:41.813Z,94.21
2022-09-28T06:21:41.802Z,93.86
2022-09-28T06:22:41.796Z,93.15
2022-09-28T06:23:45.631Z,93.25
2022-09-28T06:24:41.778Z,93.35
2022-09-28T06:25:41.770Z,93.35
2022-09-28T06:26:41.763Z,93.35
2022-09-28T06:27:41.754Z,92.38
2022-09-28T06:28:41.748Z,91.31
2022-09-28T06:29:41.737Z,90.86
2022-09-28T06:30:41.810Z,90.77
2022-09-28T06:31:41.722Z,90.33
2022-09-28T06:32:41.715Z,89.26
2022-09-28T06:33:41.709Z,88.31
2022-09-28T06:34:41.700Z,87.45
2022-09-28T06:35:41.694Z,85.06
2022-09-28T06:36:41.684Z,85.27
2022-09-28T06:37:41.676Z,84.45
2022-09-28T06:38:41.668Z,84.34
2022-09-28T06:39:41.662Z,84.34
2022-09-28T06:40:41.749Z,84.14
2022-09-28T06:41:41.648Z,83.63
2022-09-28T06:42:41.640Z,83.73
2022-09-28T06:43:41.633Z,82.92
2022-09-28T06:44:41.626Z,82.92
2022-09-28T06:45:41.643Z,83.16
2022-09-28T06:46:41.611Z,83.16
2022-09-28T06:47:41.603Z,82.55
2022-09-28T06:48:41.602Z,83.06
2022-09-28T06:49:41.589Z,82.59
2022-09-28T06:50:41.580Z,82.69
2022-09-28T06:51:41.575Z,83.30
2022-09-28T06:52:41.571Z,83.71
2022-09-28T06:53:41.560Z,83.61
2022-09-28T06:54:41.554Z,83.85
2022-09-28T06:55:41.548Z,84.01
2022-09-28T06:56:41.539Z,84.33
2022-09-28T06:57:41.532Z,84.12
2022-09-28T06:58:41.524Z,84.12
2022-09-28T06:59:41.520Z,83.95
2022-09-28T07:00:41.513Z,84.33
2022-09-28T07:01:41.554Z,84.36
2022-09-28T07:02:41.567Z,84.47
2022-09-28T07:03:41.490Z,84.88
2022-09-28T07:04:41.484Z,84.77
2022-09-28T07:05:41.477Z,84.26
2022-09-28T07:06:41.469Z,84.67
2022-09-28T07:07:41.461Z,84.57
2022-09-28T07:08:41.456Z,84.77
2022-09-28T07:09:44.984Z,84.77
2022-09-28T07:10:41.439Z,84.81
2022-09-28T07:11:41.433Z,84.91
2022-09-28T07:12:41.427Z,85.12
2022-09-28T07:13:50.542Z,85.53
2022-09-28T07:14:47.863Z,86.65
2022-09-28T07:15:41.404Z,86.55
2022-09-28T07:17:09.863Z,86.38
2022-09-28T07:17:55.918Z,85.83
2022-09-28T07:18:41.383Z,86.24
2022-09-28T07:19:41.378Z,86.24
2022-09-28T07:20:52.345Z,85.73
2022-09-28T07:21:41.360Z,85.73
2022-09-28T07:22:43.618Z,85.53
2022-09-28T07:23:51.275Z,87.26
2022-09-28T07:24:41.341Z,86.44
2022-09-28T07:25:41.333Z,86.55
2022-09-28T07:26:41.326Z,85.73
2022-09-28T07:27:41.322Z,85.42
2022-09-28T07:28:41.312Z,85.22
2022-09-28T07:29:41.303Z,85.12
2022-09-28T07:30:41.323Z,85.63
2022-09-28T07:31:41.290Z,85.73
2022-09-28T07:32:41.283Z,86.14
2022-09-28T07:33:41.274Z,85.73
2022-09-28T07:34:41.267Z,86.08
2022-09-28T07:35:41.261Z,85.22
2022-09-28T07:36:41.255Z,84.91
2022-09-28T07:37:41.247Z,85.22
2022-09-28T07:38:41.240Z,84.61
2022-09-28T07:39:41.234Z,84.71
2022-09-28T07:40:44.132Z,84.09
2022-09-28T07:41:41.218Z,84.30
2022-09-28T07:42:41.209Z,84.71
2022-09-28T07:43:41.207Z,84.61
2022-09-28T07:44:41.205Z,84.41
2022-09-28T07:45:41.220Z,84.41
2022-09-28T07:46:41.183Z,84.30
2022-09-28T07:47:41.175Z,84.50
2022-09-28T07:48:41.169Z,84.81
2022-09-28T07:49:41.160Z,84.81
2022-09-28T07:50:41.152Z,84.91
2022-09-28T07:51:41.147Z,84.91
2022-09-28T07:52:41.140Z,84.91
2022-09-28T07:53:41.130Z,84.71
2022-09-28T07:54:41.124Z,84.41
2022-09-28T07:55:41.118Z,84.30
2022-09-28T07:56:41.109Z,84.57
2022-09-28T07:57:41.102Z,84.67
2022-09-28T07:58:41.102Z,84.77
2022-09-28T07:59:41.091Z,84.77
2022-09-28T08:00:41.081Z,84.57
2022-09-28T08:01:41.168Z,84.67
2022-09-28T08:02:41.146Z,84.67
2022-09-28T08:03:41.059Z,84.26
2022-09-28T08:04:41.052Z,83.71
2022-09-28T08:05:41.046Z,83.61
2022-09-28T08:06:41.038Z,83.30
2022-09-28T08:07:41.030Z,82.18
2022-09-28T08:08:41.024Z,83.85
2022-09-28T08:09:41.016Z,83.34
2022-09-28T08:10:44.550Z,83.34
2022-09-28T08:11:41.002Z,83.54
2022-09-28T08:12:40.994Z,84.47
2022-09-28T08:13:40.988Z,83.92
2022-09-28T08:14:40.981Z,83.04
2022-09-28T08:15:40.972Z,81.81
2022-09-28T08:16:40.969Z,83.79
2022-09-28T08:17:40.958Z,83.79
2022-09-28T08:18:40.953Z,84.47
2022-09-28T08:19:40.945Z,84.77
2022-09-28T08:20:40.940Z,85.08
2022-09-28T08:21:40.931Z,84.57
2022-09-28T08:22:40.924Z,84.57
2022-09-28T08:23:40.917Z,83.81
2022-09-28T08:24:40.911Z,82.75
2022-09-28T08:25:40.902Z,81.37
2022-09-28T08:26:40.899Z,82.55
2022-09-28T08:27:40.893Z,82.75
2022-09-28T08:28:40.882Z,82.45
2022-09-28T08:29:40.874Z,82.24
2022-09-28T08:30:40.959Z,82.75
2022-09-28T08:31:40.861Z,82.31
2022-09-28T08:32:40.856Z,82.51
2022-09-28T08:33:40.847Z,82.10
2022-09-28T08:34:40.840Z,81.86
2022-09-28T08:35:40.833Z,81.76
2022-09-28T08:36:40.822Z,81.62
2022-09-28T08:37:40.820Z,80.43
2022-09-28T08:38:40.812Z,80.02
2022-09-28T08:39:40.806Z,78.39
2022-09-28T08:40:40.826Z,79.48
2022-09-28T08:41:40.794Z,79.17
2022-09-28T08:42:40.789Z,79.72
2022-09-28T08:43:40.779Z,79.38
2022-09-28T08:44:40.859Z,78.66
2022-09-28T08:45:40.784Z,77.55
2022-09-28T08:46:40.759Z,78.70
2022-09-28T08:47:40.753Z,79.17
2022-09-28T08:48:40.748Z,78.46
2022-09-28T08:49:40.738Z,78.60
2022-09-28T08:50:40.733Z,78.70
2022-09-28T08:51:40.725Z,78.60
2022-09-28T08:52:40.743Z,78.74
2022-09-28T08:53:40.713Z,79.14
2022-09-28T08:54:40.760Z,78.53
2022-09-28T08:55:40.699Z,79.32
2022-09-28T08:56:40.693Z,79.45
2022-09-28T08:57:40.685Z,79.55
2022-09-28T08:58:40.681Z,78.30
2022-09-28T08:59:40.672Z,79.38
2022-09-28T09:00:40.666Z,78.26
2022-09-28T09:01:40.742Z,77.95
2022-09-28T09:02:40.709Z,78.26
2022-09-28T09:03:40.647Z,78.66
2022-09-28T09:04:40.641Z,78.12
2022-09-28T09:05:40.636Z,76.90
2022-09-28T09:06:40.628Z,76.79
2022-09-28T09:07:40.621Z,77.40
2022-09-28T09:08:40.615Z,76.86
2022-09-28T09:09:40.608Z,75.88
2022-09-28T09:10:40.599Z,76.69
2022-09-28T09:11:40.598Z,77.40
2022-09-28T09:12:40.616Z,76.39
2022-09-28T09:13:40.582Z,76.79
2022-09-28T09:14:40.577Z,76.86
2022-09-28T09:15:40.576Z,76.76
2022-09-28T09:16:40.630Z,76.45
2022-09-28T09:17:40.558Z,75.23
2022-09-28T09:18:40.550Z,75.13
2022-09-28T09:19:40.543Z,75.23
2022-09-28T09:20:40.538Z,75.02
2022-09-28T09:21:40.532Z,74.52
2022-09-28T09:22:40.527Z,74.72
2022-09-28T09:23:40.520Z,74.69
2022-09-28T09:24:40.513Z,74.99
2022-09-28T09:25:40.505Z,75.09
2022-09-28T09:26:40.502Z,73.67
2022-09-28T09:27:40.494Z,74.28
2022-09-28T09:28:40.488Z,74.24
2022-09-28T09:29:40.494Z,73.77
2022-09-28T09:30:40.531Z,73.67
2022-09-28T09:31:40.470Z,74.58
2022-09-28T09:32:40.462Z,73.94
2022-09-28T09:33:40.458Z,72.55
2022-09-28T09:34:40.453Z,73.16
2022-09-28T09:35:40.448Z,74.38
2022-09-28T09:36:41.270Z,73.94
2022-09-28T09:37:40.434Z,73.67
2022-09-28T09:38:40.429Z,74.28
2022-09-28T09:39:40.421Z,72.45
2022-09-28T09:40:40.480Z,73.84
2022-09-28T09:41:40.495Z,73.84
2022-09-28T09:42:40.403Z,73.30
2022-09-28T09:43:40.398Z,72.69
2022-09-28T09:44:40.394Z,72.78
2022-09-28T09:45:40.404Z,71.73
2022-09-28T09:46:40.381Z,72.75
2022-09-28T09:47:40.375Z,72.45
2022-09-28T09:48:40.371Z,71.50
2022-09-28T09:49:40.364Z,70.28
2022-09-28T09:50:40.357Z,70.55
2022-09-28T09:51:40.356Z,70.15
2022-09-28T09:52:43.703Z,70.55
2022-09-28T09:53:40.345Z,69.81
2022-09-28T09:54:40.335Z,69.68
2022-09-28T09:55:40.328Z,69.60
2022-09-28T09:56:40.339Z,66.94
2022-09-28T09:57:40.320Z,66.94
2022-09-28T09:58:40.315Z,66.33
2022-09-28T09:59:40.310Z,66.94
2022-09-28T10:00:40.306Z,66.13
2022-09-28T10:01:40.341Z,66.66
2022-09-28T10:02:40.325Z,67.95
2022-09-28T10:03:40.319Z,67.75
2022-09-28T10:04:40.286Z,68.26
2022-09-28T10:05:40.279Z,68.12
2022-09-28T10:06:40.273Z,67.21
2022-09-28T10:07:43.303Z,66.60
2022-09-28T10:08:40.277Z,66.19
2022-09-28T10:09:40.258Z,65.08
2022-09-28T10:10:40.257Z,65.39
2022-09-28T10:11:40.250Z,64.67
2022-09-28T10:12:40.246Z,62.78
2022-09-28T10:13:40.244Z,62.88
2022-09-28T10:14:40.233Z,64.50
2022-09-28T10:15:40.230Z,65.42
2022-09-28T10:16:40.267Z,65.62
2022-09-28T10:17:40.220Z,65.82
2022-09-28T10:18:40.216Z,65.62
2022-09-28T10:19:40.211Z,65.08
2022-09-28T10:20:40.210Z,65.21
2022-09-28T10:21:40.201Z,62.98
2022-09-28T10:22:40.195Z,62.91
2022-09-28T10:23:40.192Z,64.97
2022-09-28T10:24:40.187Z,65.88
2022-09-28T10:25:40.180Z,64.97
2022-09-28T10:26:40.177Z,65.00
2022-09-28T10:27:40.171Z,65.91
2022-09-28T10:28:40.167Z,67.94
2022-09-28T10:29:40.162Z,68.45
2022-09-28T10:30:40.179Z,68.35
2022-09-28T10:31:40.152Z,69.06
2022-09-28T10:32:40.166Z,68.55
2022-09-28T10:33:40.141Z,68.55
2022-09-28T10:34:40.136Z,67.54
2022-09-28T10:35:40.138Z,67.84
2022-09-28T10:36:40.127Z,67.71
2022-09-28T10:37:40.122Z,67.03
2022-09-28T10:38:40.115Z,67.30
2022-09-28T10:39:40.113Z,67.10
2022-09-28T10:40:40.202Z,67.24
2022-09-28T10:41:40.102Z,67.20
2022-09-28T10:42:40.098Z,66.93
2022-09-28T10:43:40.092Z,66.83
2022-09-28T10:44:40.088Z,67.03
2022-09-28T10:45:40.143Z,67.74
2022-09-28T10:46:40.076Z,67.24
2022-09-28T10:47:40.072Z,66.52
2022-09-28T10:48:40.125Z,66.93
2022-09-28T10:49:44.416Z,66.25
2022-09-28T10:50:40.055Z,66.55
2022-09-28T10:51:40.047Z,66.25
2022-09-28T10:52:40.047Z,67.36
2022-09-28T10:53:40.045Z,67.06
2022-09-28T10:54:40.038Z,66.96
2022-09-28T10:55:40.033Z,66.96
2022-09-28T10:56:40.031Z,68.59
2022-09-28T10:57:40.019Z,67.80
2022-09-28T10:58:40.015Z,67.10
2022-09-28T10:59:40.008Z,67.60
2022-09-28T11:00:40.004Z,68.21
2022-09-28T11:01:40.045Z,69.16
2022-09-28T11:02:40.048Z,68.35
2022-09-28T11:03:39.989Z,68.24
2022-09-28T11:04:39.985Z,68.55
2022-09-28T11:05:39.976Z,68.85
2022-09-28T11:06:39.973Z,70.45
2022-09-28T11:07:39.977Z,68.82
2022-09-28T11:08:39.964Z,69.13
2022-09-28T11:09:39.957Z,68.72
2022-09-28T11:10:39.950Z,70.55
2022-09-28T11:11:39.946Z,67.80
2022-09-28T11:12:39.941Z,67.19
2022-09-28T11:13:39.935Z,67.40
2022-09-28T11:14:42.743Z,67.40
2022-09-28T11:15:39.923Z,67.60
2022-09-28T11:16:39.977Z,67.30
2022-09-28T11:17:39.914Z,67.30
2022-09-28T11:18:39.908Z,67.40
2022-09-28T11:19:39.901Z,68.01
2022-09-28T11:20:42.786Z,68.11
2022-09-28T11:21:39.890Z,68.55
2022-09-28T11:22:39.895Z,67.91
2022-09-28T11:23:39.890Z,68.44
2022-09-28T11:24:39.875Z,66.92
2022-09-28T11:25:39.869Z,67.57
2022-09-28T11:26:39.865Z,68.27
2022-09-28T11:27:39.860Z,68.58
2022-09-28T11:28:39.855Z,68.48
2022-09-28T11:29:39.846Z,68.58
2022-09-28T11:30:39.871Z,68.79
2022-09-28T11:31:39.837Z,69.49
2022-09-28T11:32:39.835Z,68.58
2022-09-28T11:33:39.826Z,68.79
2022-09-28T11:34:57.905Z,68.85
2022-09-28T11:35:39.810Z,69.49
2022-09-28T11:36:39.812Z,70.10
2022-09-28T11:37:39.804Z,70.92
2022-09-28T11:38:39.800Z,70.04
2022-09-28T11:39:39.793Z,70.45
2022-09-28T11:40:39.803Z,70.65
2022-09-28T11:41:39.786Z,70.75
2022-09-28T11:42:39.772Z,71.67
2022-09-28T11:43:39.772Z,72.41
2022-09-28T11:44:39.765Z,72.21
2022-09-28T11:45:39.821Z,71.91
2022-09-28T11:46:39.751Z,72.82
2022-09-28T11:47:39.744Z,73.02
2022-09-28T11:48:39.753Z,72.92
2022-09-28T11:49:39.733Z,73.13
2022-09-28T11:50:39.729Z,73.23
2022-09-28T11:51:39.724Z,72.52
2022-09-28T11:52:39.715Z,72.52
2022-09-28T11:53:39.717Z,72.52
2022-09-28T11:54:39.704Z,73.54
2022-09-28T11:55:39.699Z,73.77
2022-09-28T11:56:39.692Z,73.57
2022-09-28T11:57:39.685Z,73.77
2022-09-28T11:58:39.680Z,73.26
2022-09-28T11:59:39.683Z,73.77
2022-09-28T12:00:39.669Z,74.15
2022-09-28T12:01:39.662Z,74.25
2022-09-28T12:02:39.745Z,74.15
2022-09-28T12:03:39.739Z,73.94
2022-09-28T12:04:39.645Z,74.65
2022-09-28T12:05:39.638Z,74.65
2022-09-28T12:06:39.634Z,74.04
2022-09-28T12:07:39.627Z,73.71
2022-09-28T12:08:39.620Z,73.40
2022-09-28T12:09:39.613Z,72.58
2022-09-28T12:10:44.685Z,72.04
2022-09-28T12:11:39.604Z,72.45
2022-09-28T12:12:39.597Z,71.02
2022-09-28T12:13:39.590Z,70.51
2022-09-28T12:14:39.588Z,70.01
2022-09-28T12:16:06.895Z,68.14
2022-09-28T12:17:04.146Z,67.83
2022-09-28T12:17:39.596Z,67.33
2022-09-28T12:18:39.562Z,68.04
2022-09-28T12:19:39.562Z,68.41
2022-09-28T12:20:39.565Z,67.30
2022-09-28T12:21:39.642Z,66.76
2022-09-28T12:22:39.538Z,66.96
2022-09-28T12:23:39.533Z,66.72
2022-09-28T12:24:39.528Z,66.93
2022-09-28T12:25:39.520Z,66.93
2022-09-28T12:26:39.515Z,67.13
2022-09-28T12:27:39.511Z,68.22
2022-09-28T12:28:39.506Z,66.69
2022-09-28T12:29:39.499Z,67.17
2022-09-28T12:30:39.567Z,67.10
2022-09-28T12:31:39.488Z,65.99
2022-09-28T12:32:39.490Z,64.97
2022-09-28T12:33:39.477Z,65.91
2022-09-28T12:34:39.482Z,65.81
2022-09-28T12:35:39.466Z,64.87
2022-09-28T12:36:39.461Z,64.79
2022-09-28T12:37:39.456Z,65.78
2022-09-28T12:38:39.454Z,65.88
2022-09-28T12:39:56.492Z,66.02
2022-09-28T12:40:39.533Z,64.67
2022-09-28T12:41:39.435Z,65.61
2022-09-28T12:42:39.433Z,65.44
2022-09-28T12:43:39.423Z,64.59
2022-09-28T12:44:39.418Z,63.60
2022-09-28T12:46:06.743Z,64.49
2022-09-28T12:46:39.446Z,64.90
2022-09-28T12:47:39.402Z,64.49
2022-09-28T12:48:39.398Z,63.17
2022-09-28T12:50:42.095Z,64.87
2022-09-28T12:51:39.379Z,64.46
2022-09-28T12:52:39.373Z,64.43
2022-09-28T12:53:39.368Z,63.92